sensor_id;sensor_type;location;lat;lon;timestamp;pressure;altitude;pressure_sealevel;temperature;humidity
61805;BME280;47725;47.912;7.356;2022-07-29T00:00:47;98982.36;;;29.54;41.30
61805;BME280;47725;47.912;7.356;2022-07-29T00:04:47;98977.70;;;29.57;40.90
61805;BME280;47725;47.912;7.356;2022-07-29T00:08:47;98973.82;;;29.60;40.81
61805;BME280;47725;47.912;7.356;2022-07-29T00:12:47;98971.04;;;29.62;41.10
61805;BME280;47725;47.912;7.356;2022-07-29T00:16:47;98968.64;;;29.62;40.96
61805;BME280;47725;47.912;7.356;2022-07-29T00:20:47;98965.97;;;29.64;40.84
61805;BME280;47725;47.912;7.356;2022-07-29T00:24:47;98964.83;;;29.67;40.78
61805;BME280;47725;47.912;7.356;2022-07-29T00:28:47;98964.72;;;29.66;41.10
61805;BME280;47725;47.912;7.356;2022-07-29T00:32:48;98963.81;;;29.68;40.64
61805;BME280;47725;47.912;7.356;2022-07-29T00:36:47;98962.26;;;29.72;40.47
61805;BME280;47725;47.912;7.356;2022-07-29T00:40:47;98960.36;;;29.77;40.38
61805;BME280;47725;47.912;7.356;2022-07-29T00:44:47;98958.17;;;29.75;40.96
61805;BME280;47725;47.912;7.356;2022-07-29T00:48:47;98956.98;;;29.74;41.19
61805;BME280;47725;47.912;7.356;2022-07-29T00:52:47;98957.14;;;29.68;41.36
61805;BME280;47725;47.912;7.356;2022-07-29T00:56:47;98955.74;;;29.63;41.43
61805;BME280;47725;47.912;7.356;2022-07-29T01:00:47;98954.86;;;29.56;41.72
61805;BME280;47725;47.912;7.356;2022-07-29T01:04:47;98954.85;;;29.53;41.48
61805;BME280;47725;47.912;7.356;2022-07-29T01:08:47;98955.72;;;29.51;41.43
61805;BME280;47725;47.912;7.356;2022-07-29T01:12:48;98956.72;;;29.49;41.53
61805;BME280;47725;47.912;7.356;2022-07-29T01:20:55;98958.96;;;29.45;41.47
61805;BME280;47725;47.912;7.356;2022-07-29T01:24:55;98960.54;;;29.46;41.36
61805;BME280;47725;47.912;7.356;2022-07-29T01:32:47;98961.83;;;29.42;41.70
61805;BME280;47725;47.912;7.356;2022-07-29T01:36:48;98963.11;;;29.40;41.57
61805;BME280;47725;47.912;7.356;2022-07-29T01:40:51;98964.00;;;29.40;41.58
61805;BME280;47725;47.912;7.356;2022-07-29T01:44:57;98964.49;;;29.38;41.77
61805;BME280;47725;47.912;7.356;2022-07-29T01:48:47;98963.70;;;29.35;41.72
61805;BME280;47725;47.912;7.356;2022-07-29T01:52:52;98963.37;;;29.35;41.61
61805;BME280;47725;47.912;7.356;2022-07-29T01:56:48;98963.30;;;29.35;41.59
61805;BME280;47725;47.912;7.356;2022-07-29T02:00:47;98963.30;;;29.34;41.66
61805;BME280;47725;47.912;7.356;2022-07-29T02:04:47;98964.69;;;29.32;41.82
61805;BME280;47725;47.912;7.356;2022-07-29T02:08:47;98965.70;;;29.31;41.64
61805;BME280;47725;47.912;7.356;2022-07-29T02:12:47;98966.46;;;29.31;41.62
61805;BME280;47725;47.912;7.356;2022-07-29T02:16:47;98967.79;;;29.31;41.68
61805;BME280;47725;47.912;7.356;2022-07-29T02:20:48;98968.86;;;29.30;41.73
61805;BME280;47725;47.912;7.356;2022-07-29T02:24:47;98969.25;;;29.27;41.86
61805;BME280;47725;47.912;7.356;2022-07-29T02:28:47;98968.92;;;29.27;41.71
61805;BME280;47725;47.912;7.356;2022-07-29T02:32:47;98968.98;;;29.25;42.03
61805;BME280;47725;47.912;7.356;2022-07-29T02:36:47;98968.09;;;29.21;41.91
61805;BME280;47725;47.912;7.356;2022-07-29T02:40:47;98967.77;;;29.20;41.90
61805;BME280;47725;47.912;7.356;2022-07-29T02:44:47;98967.69;;;29.23;41.52
61805;BME280;47725;47.912;7.356;2022-07-29T02:52:47;98969.22;;;29.24;41.59
61805;BME280;47725;47.912;7.356;2022-07-29T02:56:47;98969.06;;;29.26;41.50
61805;BME280;47725;47.912;7.356;2022-07-29T03:00:47;98967.42;;;29.28;41.43
61805;BME280;47725;47.912;7.356;2022-07-29T03:04:47;98966.67;;;29.28;41.68
61805;BME280;47725;47.912;7.356;2022-07-29T03:08:47;98967.05;;;29.26;41.59
61805;BME280;47725;47.912;7.356;2022-07-29T03:12:47;98968.16;;;29.27;41.52
61805;BME280;47725;47.912;7.356;2022-07-29T03:16:47;98967.67;;;29.29;41.44
61805;BME280;47725;47.912;7.356;2022-07-29T03:20:47;98967.14;;;29.26;41.97
61805;BME280;47725;47.912;7.356;2022-07-29T03:24:47;98966.65;;;29.25;41.59
61805;BME280;47725;47.912;7.356;2022-07-29T03:28:47;98964.14;;;29.27;41.43
61805;BME280;47725;47.912;7.356;2022-07-29T03:32:47;98960.83;;;29.30;41.40
61805;BME280;47725;47.912;7.356;2022-07-29T03:36:47;98958.03;;;29.28;41.71
61805;BME280;47725;47.912;7.356;2022-07-29T03:40:51;98955.87;;;29.29;41.40
61805;BME280;47725;47.912;7.356;2022-07-29T03:44:47;98954.32;;;29.31;41.36
61805;BME280;47725;47.912;7.356;2022-07-29T03:48:47;98954.16;;;29.31;41.57
61805;BME280;47725;47.912;7.356;2022-07-29T03:52:47;98953.88;;;29.30;41.43
61805;BME280;47725;47.912;7.356;2022-07-29T03:56:47;98953.29;;;29.31;41.46
61805;BME280;47725;47.912;7.356;2022-07-29T04:00:47;98953.05;;;29.32;41.28
61805;BME280;47725;47.912;7.356;2022-07-29T04:04:47;98954.80;;;29.30;41.60
61805;BME280;47725;47.912;7.356;2022-07-29T04:08:47;98956.28;;;29.29;41.37
61805;BME280;47725;47.912;7.356;2022-07-29T04:12:47;98958.64;;;29.28;41.49
61805;BME280;47725;47.912;7.356;2022-07-29T04:16:47;98961.14;;;29.27;41.56
61805;BME280;47725;47.912;7.356;2022-07-29T04:20:46;98963.78;;;29.24;41.63
61805;BME280;47725;47.912;7.356;2022-07-29T04:24:47;98966.44;;;29.23;41.50
61805;BME280;47725;47.912;7.356;2022-07-29T04:28:47;98968.70;;;29.23;41.47
61805;BME280;47725;47.912;7.356;2022-07-29T04:32:47;98970.86;;;29.21;41.67
61805;BME280;47725;47.912;7.356;2022-07-29T04:36:47;98972.94;;;29.20;41.36
61805;BME280;47725;47.912;7.356;2022-07-29T04:40:46;98975.81;;;29.23;41.14
61805;BME280;47725;47.912;7.356;2022-07-29T04:44:46;98978.77;;;29.25;41.15
61805;BME280;47725;47.912;7.356;2022-07-29T04:48:46;98981.69;;;29.23;41.46
61805;BME280;47725;47.912;7.356;2022-07-29T04:52:46;98985.27;;;29.25;41.18
61805;BME280;47725;47.912;7.356;2022-07-29T04:56:46;98989.29;;;29.24;41.34
61805;BME280;47725;47.912;7.356;2022-07-29T05:00:46;98993.39;;;29.24;41.27
61805;BME280;47725;47.912;7.356;2022-07-29T05:04:47;98997.99;;;29.23;41.40
61805;BME280;47725;47.912;7.356;2022-07-29T05:08:46;99001.67;;;29.25;41.17
61805;BME280;47725;47.912;7.356;2022-07-29T05:12:46;99004.63;;;29.26;41.13
61805;BME280;47725;47.912;7.356;2022-07-29T05:16:46;99007.30;;;29.26;41.30
61805;BME280;47725;47.912;7.356;2022-07-29T05:20:46;99011.56;;;29.24;41.34
61805;BME280;47725;47.912;7.356;2022-07-29T05:24:46;99015.83;;;29.24;41.18
61805;BME280;47725;47.912;7.356;2022-07-29T05:28:46;99019.02;;;29.25;41.13
61805;BME280;47725;47.912;7.356;2022-07-29T05:32:46;99022.34;;;29.24;41.38
61805;BME280;47725;47.912;7.356;2022-07-29T05:36:46;99025.02;;;29.22;41.20
61805;BME280;47725;47.912;7.356;2022-07-29T05:40:46;99028.11;;;29.23;41.13
61805;BME280;47725;47.912;7.356;2022-07-29T05:44:46;99030.13;;;29.24;41.10
61805;BME280;47725;47.912;7.356;2022-07-29T05:48:46;99031.44;;;29.21;41.45
61805;BME280;47725;47.912;7.356;2022-07-29T05:52:46;99034.03;;;29.21;41.13
61805;BME280;47725;47.912;7.356;2022-07-29T05:56:46;99037.08;;;29.20;41.36
61805;BME280;47725;47.912;7.356;2022-07-29T06:00:46;99039.23;;;29.18;41.40
61805;BME280;47725;47.912;7.356;2022-07-29T06:04:46;99040.87;;;29.15;41.39
61805;BME280;47725;47.912;7.356;2022-07-29T06:08:46;99043.91;;;29.16;41.24
61805;BME280;47725;47.912;7.356;2022-07-29T06:12:46;99046.42;;;29.16;41.24
61805;BME280;47725;47.912;7.356;2022-07-29T06:16:46;99049.80;;;29.14;41.53
61805;BME280;47725;47.912;7.356;2022-07-29T06:20:46;99053.89;;;29.12;41.31
61805;BME280;47725;47.912;7.356;2022-07-29T06:24:46;99057.31;;;29.12;41.29
61805;BME280;47725;47.912;7.356;2022-07-29T06:28:47;99058.68;;;29.13;41.26
61805;BME280;47725;47.912;7.356;2022-07-29T06:32:46;99059.88;;;29.09;41.61
61805;BME280;47725;47.912;7.356;2022-07-29T06:36:46;99060.74;;;29.10;41.28
61805;BME280;47725;47.912;7.356;2022-07-29T06:40:46;99063.17;;;29.12;41.13
61805;BME280;47725;47.912;7.356;2022-07-29T06:44:46;99065.41;;;29.11;41.47
61805;BME280;47725;47.912;7.356;2022-07-29T06:48:46;99069.45;;;29.12;41.03
61805;BME280;47725;47.912;7.356;2022-07-29T06:52:47;99073.10;;;29.16;40.91
61805;BME280;47725;47.912;7.356;2022-07-29T06:56:46;99076.11;;;29.22;40.68
61805;BME280;47725;47.912;7.356;2022-07-29T07:00:47;99079.74;;;29.22;41.03
61805;BME280;47725;47.912;7.356;2022-07-29T07:04:46;99084.85;;;29.24;40.93
61805;BME280;47725;47.912;7.356;2022-07-29T07:08:46;99090.20;;;29.24;40.95
61805;BME280;47725;47.912;7.356;2022-07-29T07:12:46;99094.31;;;29.24;41.16
61805;BME280;47725;47.912;7.356;2022-07-29T07:16:46;99098.72;;;29.23;41.00
61805;BME280;47725;47.912;7.356;2022-07-29T07:20:46;99103.91;;;29.23;41.01
61805;BME280;47725;47.912;7.356;2022-07-29T07:24:46;99109.52;;;29.22;41.12
61805;BME280;47725;47.912;7.356;2022-07-29T07:28:46;99114.22;;;29.19;41.46
61805;BME280;47725;47.912;7.356;2022-07-29T07:32:46;99117.76;;;29.15;41.35
61805;BME280;47725;47.912;7.356;2022-07-29T07:36:46;99120.50;;;29.13;41.40
61805;BME280;47725;47.912;7.356;2022-07-29T07:40:46;99122.07;;;29.12;41.33
61805;BME280;47725;47.912;7.356;2022-07-29T07:44:46;99124.38;;;29.08;41.49
61805;BME280;47725;47.912;7.356;2022-07-29T07:48:46;99125.80;;;29.08;41.34
61805;BME280;47725;47.912;7.356;2022-07-29T07:52:50;99126.54;;;29.08;41.29
61805;BME280;47725;47.912;7.356;2022-07-29T07:56:46;99125.36;;;29.07;41.48
61805;BME280;47725;47.912;7.356;2022-07-29T08:00:46;99123.75;;;29.05;41.40
61805;BME280;47725;47.912;7.356;2022-07-29T08:04:46;99122.89;;;29.04;41.53
61805;BME280;47725;47.912;7.356;2022-07-29T08:08:46;99122.96;;;29.02;41.65
61805;BME280;47725;47.912;7.356;2022-07-29T08:12:46;99122.83;;;28.99;41.67
61805;BME280;47725;47.912;7.356;2022-07-29T08:16:46;99122.75;;;28.99;41.39
61805;BME280;47725;47.912;7.356;2022-07-29T08:20:46;99122.77;;;29.01;41.36
61805;BME280;47725;47.912;7.356;2022-07-29T08:24:46;99123.21;;;29.03;41.28
61805;BME280;47725;47.912;7.356;2022-07-29T08:28:46;99124.02;;;29.01;41.58
61805;BME280;47725;47.912;7.356;2022-07-29T08:32:47;99126.39;;;29.02;41.29
61805;BME280;47725;47.912;7.356;2022-07-29T08:36:46;99128.41;;;29.04;41.22
61805;BME280;47725;47.912;7.356;2022-07-29T08:40:46;99129.74;;;29.02;41.54
61805;BME280;47725;47.912;7.356;2022-07-29T08:44:46;99132.34;;;29.03;41.28
61805;BME280;47725;47.912;7.356;2022-07-29T08:48:47;99133.04;;;29.05;41.23
61805;BME280;47725;47.912;7.356;2022-07-29T08:52:46;99133.54;;;29.05;41.46
61805;BME280;47725;47.912;7.356;2022-07-29T08:56:48;99133.35;;;29.03;41.40
61805;BME280;47725;47.912;7.356;2022-07-29T09:00:50;99132.76;;;29.04;41.28
61805;BME280;47725;47.912;7.356;2022-07-29T09:04:46;99131.05;;;29.06;41.13
61805;BME280;47725;47.912;7.356;2022-07-29T09:08:46;99129.36;;;29.05;41.50
61805;BME280;47725;47.912;7.356;2022-07-29T09:12:46;99129.24;;;29.02;41.59
61805;BME280;47725;47.912;7.356;2022-07-29T09:16:47;99129.46;;;29.01;41.55
61805;BME280;47725;47.912;7.356;2022-07-29T09:20:51;99130.02;;;29.00;41.58
61805;BME280;47725;47.912;7.356;2022-07-29T09:24:46;99131.36;;;29.00;41.39
61805;BME280;47725;47.912;7.356;2022-07-29T09:28:46;99134.38;;;28.99;41.60
61805;BME280;47725;47.912;7.356;2022-07-29T09:32:57;99136.38;;;29.00;41.38
61805;BME280;47725;47.912;7.356;2022-07-29T09:36:47;99137.97;;;29.00;41.56
61805;BME280;47725;47.912;7.356;2022-07-29T09:40:55;99140.65;;;28.99;41.44
61805;BME280;47725;47.912;7.356;2022-07-29T09:44:48;99141.74;;;29.00;41.38
61805;BME280;47725;47.912;7.356;2022-07-29T09:49:05;99141.69;;;29.03;41.15
61805;BME280;47725;47.912;7.356;2022-07-29T09:52:48;99140.52;;;29.02;41.42
61805;BME280;47725;47.912;7.356;2022-07-29T09:56:46;99140.45;;;29.05;41.16
61805;BME280;47725;47.912;7.356;2022-07-29T10:00:47;99140.48;;;29.05;41.31
61805;BME280;47725;47.912;7.356;2022-07-29T10:04:46;99140.89;;;29.05;41.22
61805;BME280;47725;47.912;7.356;2022-07-29T10:08:46;99142.08;;;29.07;41.05
61805;BME280;47725;47.912;7.356;2022-07-29T10:12:50;99144.16;;;29.06;41.40
61805;BME280;47725;47.912;7.356;2022-07-29T10:16:46;99145.08;;;29.06;41.34
61805;BME280;47725;47.912;7.356;2022-07-29T10:20:46;99144.58;;;29.05;41.43
61805;BME280;47725;47.912;7.356;2022-07-29T10:24:46;99144.65;;;29.06;41.21
61805;BME280;47725;47.912;7.356;2022-07-29T10:28:46;99144.53;;;29.09;41.11
61805;BME280;47725;47.912;7.356;2022-07-29T10:36:53;99142.80;;;29.10;41.39
61805;BME280;47725;47.912;7.356;2022-07-29T10:44:46;99143.13;;;29.10;41.39
61805;BME280;47725;47.912;7.356;2022-07-29T10:52:53;99147.25;;;29.06;41.44
61805;BME280;47725;47.912;7.356;2022-07-29T10:56:46;99149.70;;;29.07;41.40
61805;BME280;47725;47.912;7.356;2022-07-29T11:00:47;99153.62;;;29.05;41.69
61805;BME280;47725;47.912;7.356;2022-07-29T11:08:46;99156.27;;;29.04;41.41
61805;BME280;47725;47.912;7.356;2022-07-29T11:12:46;99157.06;;;29.08;41.24
61805;BME280;47725;47.912;7.356;2022-07-29T11:16:58;99156.05;;;29.08;41.49
61805;BME280;47725;47.912;7.356;2022-07-29T11:20:49;99156.23;;;29.09;41.28
61805;BME280;47725;47.912;7.356;2022-07-29T11:24:46;99157.45;;;29.12;41.10
61805;BME280;47725;47.912;7.356;2022-07-29T11:32:46;99156.64;;;29.13;41.41
61805;BME280;47725;47.912;7.356;2022-07-29T11:41:18;99153.61;;;29.17;41.01
61805;BME280;47725;47.912;7.356;2022-07-29T11:45:02;99152.59;;;29.18;41.19
61805;BME280;47725;47.912;7.356;2022-07-29T11:48:46;99151.51;;;29.18;41.07
61805;BME280;47725;47.912;7.356;2022-07-29T11:52:46;99151.75;;;29.21;40.95
61805;BME280;47725;47.912;7.356;2022-07-29T11:56:46;99151.45;;;29.24;40.87
61805;BME280;47725;47.912;7.356;2022-07-29T12:00:46;99151.53;;;29.24;41.10
61805;BME280;47725;47.912;7.356;2022-07-29T12:04:50;99152.46;;;29.24;40.99
61805;BME280;47725;47.912;7.356;2022-07-29T12:08:46;99153.90;;;29.25;40.91
61805;BME280;47725;47.912;7.356;2022-07-29T12:12:50;99154.75;;;29.27;40.92
61805;BME280;47725;47.912;7.356;2022-07-29T12:16:46;99155.05;;;29.24;41.29
61805;BME280;47725;47.912;7.356;2022-07-29T12:20:47;99154.57;;;29.25;40.99
61805;BME280;47725;47.912;7.356;2022-07-29T12:24:46;99155.15;;;29.26;40.97
61805;BME280;47725;47.912;7.356;2022-07-29T12:28:46;99155.74;;;29.26;41.15
61805;BME280;47725;47.912;7.356;2022-07-29T12:32:46;99155.80;;;29.24;41.16
61805;BME280;47725;47.912;7.356;2022-07-29T12:36:46;99156.30;;;29.25;41.05
61805;BME280;47725;47.912;7.356;2022-07-29T12:40:46;99156.41;;;29.26;40.99
61805;BME280;47725;47.912;7.356;2022-07-29T12:44:46;99154.99;;;29.25;41.29
61805;BME280;47725;47.912;7.356;2022-07-29T12:48:49;99153.22;;;29.23;41.16
61805;BME280;47725;47.912;7.356;2022-07-29T12:52:46;99151.62;;;29.24;41.06
61805;BME280;47725;47.912;7.356;2022-07-29T12:56:46;99150.89;;;29.25;41.03
61805;BME280;47725;47.912;7.356;2022-07-29T13:00:46;99149.95;;;29.24;41.31
61805;BME280;47725;47.912;7.356;2022-07-29T13:04:54;99150.03;;;29.24;41.07
61805;BME280;47725;47.912;7.356;2022-07-29T13:09:02;99149.89;;;29.25;41.04
61805;BME280;47725;47.912;7.356;2022-07-29T13:17:05;99150.67;;;29.23;41.20
61805;BME280;47725;47.912;7.356;2022-07-29T13:20:46;99151.62;;;29.24;41.03
61805;BME280;47725;47.912;7.356;2022-07-29T13:24:52;99152.56;;;29.25;40.93
61805;BME280;47725;47.912;7.356;2022-07-29T13:28:46;99152.62;;;29.25;41.22
61805;BME280;47725;47.912;7.356;2022-07-29T13:32:46;99153.13;;;29.25;41.02
61805;BME280;47725;47.912;7.356;2022-07-29T13:36:46;99153.72;;;29.23;41.25
61805;BME280;47725;47.912;7.356;2022-07-29T13:40:46;99154.78;;;29.22;41.24
61805;BME280;47725;47.912;7.356;2022-07-29T13:44:46;99153.85;;;29.18;41.54
61805;BME280;47725;47.912;7.356;2022-07-29T13:48:46;99153.25;;;29.17;41.30
61805;BME280;47725;47.912;7.356;2022-07-29T13:52:46;99152.40;;;29.17;41.24
61805;BME280;47725;47.912;7.356;2022-07-29T13:56:46;99150.80;;;29.15;41.42
61805;BME280;47725;47.912;7.356;2022-07-29T14:00:46;99149.28;;;29.13;41.38
61805;BME280;47725;47.912;7.356;2022-07-29T14:04:46;99148.44;;;29.13;41.28
61805;BME280;47725;47.912;7.356;2022-07-29T14:08:46;99147.46;;;29.14;41.22
61805;BME280;47725;47.912;7.356;2022-07-29T14:12:46;99146.10;;;29.13;41.49
61805;BME280;47725;47.912;7.356;2022-07-29T14:16:46;99143.31;;;29.12;41.28
61805;BME280;47725;47.912;7.356;2022-07-29T14:20:46;99141.58;;;29.13;41.17
61805;BME280;47725;47.912;7.356;2022-07-29T14:24:46;99140.73;;;29.14;41.28
61805;BME280;47725;47.912;7.356;2022-07-29T14:28:46;99140.22;;;29.12;41.28
61805;BME280;47725;47.912;7.356;2022-07-29T14:32:46;99140.32;;;29.14;41.13
61805;BME280;47725;47.912;7.356;2022-07-29T14:36:46;99141.60;;;29.15;41.09
61805;BME280;47725;47.912;7.356;2022-07-29T14:40:46;99142.94;;;29.15;41.28
61805;BME280;47725;47.912;7.356;2022-07-29T14:44:46;99142.83;;;29.13;41.16
61805;BME280;47725;47.912;7.356;2022-07-29T14:48:46;99143.70;;;29.14;41.09
61805;BME280;47725;47.912;7.356;2022-07-29T14:52:46;99144.72;;;29.16;41.05
61805;BME280;47725;47.912;7.356;2022-07-29T14:56:46;99145.42;;;29.14;41.32
61805;BME280;47725;47.912;7.356;2022-07-29T15:00:46;99145.09;;;29.13;41.13
61805;BME280;47725;47.912;7.356;2022-07-29T15:04:46;99145.36;;;29.15;41.04
61805;BME280;47725;47.912;7.356;2022-07-29T15:08:46;99146.56;;;29.16;41.09
61805;BME280;47725;47.912;7.356;2022-07-29T15:12:46;99146.20;;;29.15;41.11
61805;BME280;47725;47.912;7.356;2022-07-29T15:16:46;99147.31;;;29.16;40.98
61805;BME280;47725;47.912;7.356;2022-07-29T15:20:46;99146.59;;;29.19;40.75
61805;BME280;47725;47.912;7.356;2022-07-29T15:24:46;99145.14;;;29.20;40.91
61805;BME280;47725;47.912;7.356;2022-07-29T15:28:46;99141.96;;;29.21;40.68
61805;BME280;47725;47.912;7.356;2022-07-29T15:32:46;99139.21;;;29.23;40.78
61805;BME280;47725;47.912;7.356;2022-07-29T15:36:46;99136.41;;;29.26;40.49
61805;BME280;47725;47.912;7.356;2022-07-29T15:40:46;99134.56;;;29.26;40.77
61805;BME280;47725;47.912;7.356;2022-07-29T15:44:46;99132.33;;;29.27;40.65
61805;BME280;47725;47.912;7.356;2022-07-29T15:48:46;99131.09;;;29.29;40.53
61805;BME280;47725;47.912;7.356;2022-07-29T15:52:46;99129.11;;;29.30;40.62
61805;BME280;47725;47.912;7.356;2022-07-29T15:56:46;99126.65;;;29.29;40.73
61805;BME280;47725;47.912;7.356;2022-07-29T16:00:46;99124.67;;;29.30;40.56
61805;BME280;47725;47.912;7.356;2022-07-29T16:04:46;99123.02;;;29.31;40.53
61805;BME280;47725;47.912;7.356;2022-07-29T16:08:46;99119.80;;;29.29;40.86
61805;BME280;47725;47.912;7.356;2022-07-29T16:12:46;99118.23;;;29.30;40.60
61805;BME280;47725;47.912;7.356;2022-07-29T16:16:46;99115.73;;;29.31;40.52
61805;BME280;47725;47.912;7.356;2022-07-29T16:20:46;99114.49;;;29.33;40.52
61805;BME280;47725;47.912;7.356;2022-07-29T16:24:46;99112.47;;;29.31;40.87
61805;BME280;47725;47.912;7.356;2022-07-29T16:28:46;99110.30;;;29.32;40.56
61805;BME280;47725;47.912;7.356;2022-07-29T16:32:46;99107.89;;;29.33;40.51
61805;BME280;47725;47.912;7.356;2022-07-29T16:36:46;99105.45;;;29.33;40.67
61805;BME280;47725;47.912;7.356;2022-07-29T16:40:46;99103.68;;;29.32;40.56
61805;BME280;47725;47.912;7.356;2022-07-29T16:44:46;99103.69;;;29.33;40.46
61805;BME280;47725;47.912;7.356;2022-07-29T16:48:46;99103.55;;;29.34;40.41
61805;BME280;47725;47.912;7.356;2022-07-29T16:52:46;99102.57;;;29.31;40.96
61805;BME280;47725;47.912;7.356;2022-07-29T16:56:46;99101.32;;;29.30;40.56
61805;BME280;47725;47.912;7.356;2022-07-29T17:00:46;99100.86;;;29.33;40.40
61805;BME280;47725;47.912;7.356;2022-07-29T17:04:46;99101.39;;;29.36;40.26
61805;BME280;47725;47.912;7.356;2022-07-29T17:08:46;99102.37;;;29.36;40.52
61805;BME280;47725;47.912;7.356;2022-07-29T17:12:46;99102.14;;;29.37;40.43
61805;BME280;47725;47.912;7.356;2022-07-29T17:16:46;99102.91;;;29.38;40.46
61805;BME280;47725;47.912;7.356;2022-07-29T17:20:46;99103.81;;;29.36;40.82
61805;BME280;47725;47.912;7.356;2022-07-29T17:24:46;99105.38;;;29.33;40.78
61805;BME280;47725;47.912;7.356;2022-07-29T17:28:46;99106.45;;;29.31;40.88
61805;BME280;47725;47.912;7.356;2022-07-29T17:32:46;99108.73;;;29.27;41.25
61805;BME280;47725;47.912;7.356;2022-07-29T17:36:46;99110.88;;;29.23;41.00
61805;BME280;47725;47.912;7.356;2022-07-29T17:40:46;99113.64;;;29.24;40.92
61805;BME280;47725;47.912;7.356;2022-07-29T17:44:46;99117.08;;;29.25;40.81
61805;BME280;47725;47.912;7.356;2022-07-29T17:48:46;99119.05;;;29.23;41.14
61805;BME280;47725;47.912;7.356;2022-07-29T17:52:46;99121.65;;;29.22;40.99
61805;BME280;47725;47.912;7.356;2022-07-29T17:56:46;99124.33;;;29.23;40.93
61805;BME280;47725;47.912;7.356;2022-07-29T18:00:46;99126.50;;;29.22;41.08
61805;BME280;47725;47.912;7.356;2022-07-29T18:04:46;99128.31;;;29.22;40.80
61805;BME280;47725;47.912;7.356;2022-07-29T18:08:46;99130.55;;;29.25;40.64
61805;BME280;47725;47.912;7.356;2022-07-29T18:12:46;99132.84;;;29.29;40.55
61805;BME280;47725;47.912;7.356;2022-07-29T18:16:46;99134.19;;;29.29;40.95
61805;BME280;47725;47.912;7.356;2022-07-29T18:20:46;99136.21;;;29.31;40.61
61805;BME280;47725;47.912;7.356;2022-07-29T18:24:46;99138.51;;;29.33;40.55
61805;BME280;47725;47.912;7.356;2022-07-29T18:28:46;99140.52;;;29.34;40.70
61805;BME280;47725;47.912;7.356;2022-07-29T18:32:46;99143.03;;;29.33;40.75
61805;BME280;47725;47.912;7.356;2022-07-29T18:36:46;99146.66;;;29.34;40.60
61805;BME280;47725;47.912;7.356;2022-07-29T18:40:46;99150.64;;;29.34;40.81
61805;BME280;47725;47.912;7.356;2022-07-29T18:44:46;99154.00;;;29.33;40.87
61805;BME280;47725;47.912;7.356;2022-07-29T18:48:46;99157.01;;;29.33;40.61
61805;BME280;47725;47.912;7.356;2022-07-29T18:52:46;99158.62;;;29.34;40.52
61805;BME280;47725;47.912;7.356;2022-07-29T18:56:46;99160.72;;;29.36;40.54
61805;BME280;47725;47.912;7.356;2022-07-29T19:00:46;99162.45;;;29.33;40.98
61805;BME280;47725;47.912;7.356;2022-07-29T19:04:46;99164.59;;;29.30;40.92
61805;BME280;47725;47.912;7.356;2022-07-29T19:08:46;99166.60;;;29.30;40.73
61805;BME280;47725;47.912;7.356;2022-07-29T19:12:46;99170.94;;;29.30;40.75
61805;BME280;47725;47.912;7.356;2022-07-29T19:16:46;99175.66;;;29.25;41.24
61805;BME280;47725;47.912;7.356;2022-07-29T19:20:46;99179.67;;;29.25;40.79
61805;BME280;47725;47.912;7.356;2022-07-29T19:24:46;99182.54;;;29.27;40.76
61805;BME280;47725;47.912;7.356;2022-07-29T19:28:46;99187.81;;;29.27;40.89
61805;BME280;47725;47.912;7.356;2022-07-29T19:32:46;99192.39;;;29.25;40.90
61805;BME280;47725;47.912;7.356;2022-07-29T19:36:46;99198.91;;;29.25;40.81
61805;BME280;47725;47.912;7.356;2022-07-29T19:40:46;99205.05;;;29.27;40.77
61805;BME280;47725;47.912;7.356;2022-07-29T19:44:46;99210.36;;;29.24;41.11
61805;BME280;47725;47.912;7.356;2022-07-29T19:48:46;99217.14;;;29.24;40.84
61805;BME280;47725;47.912;7.356;2022-07-29T19:52:46;99223.02;;;29.25;40.75
61805;BME280;47725;47.912;7.356;2022-07-29T19:56:46;99229.88;;;29.25;40.97
61805;BME280;47725;47.912;7.356;2022-07-29T20:00:46;99236.13;;;29.24;40.82
61805;BME280;47725;47.912;7.356;2022-07-29T20:04:46;99241.76;;;29.25;40.70
61805;BME280;47725;47.912;7.356;2022-07-29T20:08:46;99247.05;;;29.27;40.60
61805;BME280;47725;47.912;7.356;2022-07-29T20:12:46;99252.80;;;29.25;40.90
61805;BME280;47725;47.912;7.356;2022-07-29T20:16:46;99258.01;;;29.27;40.65
61805;BME280;47725;47.912;7.356;2022-07-29T20:20:46;99263.11;;;29.28;40.71
61805;BME280;47725;47.912;7.356;2022-07-29T20:24:46;99266.13;;;29.28;40.88
61805;BME280;47725;47.912;7.356;2022-07-29T20:28:46;99268.73;;;29.27;40.79
61805;BME280;47725;47.912;7.356;2022-07-29T20:32:46;99270.23;;;29.28;40.72
61805;BME280;47725;47.912;7.356;2022-07-29T20:36:46;99271.48;;;29.28;40.83
61805;BME280;47725;47.912;7.356;2022-07-29T20:40:46;99273.58;;;29.23;41.31
61805;BME280;47725;47.912;7.356;2022-07-29T20:44:46;99275.34;;;29.23;40.90
61805;BME280;47725;47.912;7.356;2022-07-29T20:48:46;99275.09;;;29.23;40.85
61805;BME280;47725;47.912;7.356;2022-07-29T20:52:46;99275.74;;;29.22;41.18
61805;BME280;47725;47.912;7.356;2022-07-29T20:56:46;99276.26;;;29.18;41.09
61805;BME280;47725;47.912;7.356;2022-07-29T21:00:46;99277.26;;;29.18;40.87
61805;BME280;47725;47.912;7.356;2022-07-29T21:04:46;99277.95;;;29.19;40.82
61805;BME280;47725;47.912;7.356;2022-07-29T21:08:46;99279.35;;;29.19;41.03
61805;BME280;47725;47.912;7.356;2022-07-29T21:12:46;99280.69;;;29.18;40.88
61805;BME280;47725;47.912;7.356;2022-07-29T21:16:46;99281.36;;;29.18;40.90
61805;BME280;47725;47.912;7.356;2022-07-29T21:20:46;99282.28;;;29.17;40.99
61805;BME280;47725;47.912;7.356;2022-07-29T21:24:46;99284.08;;;29.15;41.05
61805;BME280;47725;47.912;7.356;2022-07-29T21:28:46;99286.02;;;29.17;40.77
61805;BME280;47725;47.912;7.356;2022-07-29T21:32:46;99288.08;;;29.20;40.68
61805;BME280;47725;47.912;7.356;2022-07-29T21:36:46;99289.70;;;29.17;41.10
61805;BME280;47725;47.912;7.356;2022-07-29T21:40:46;99292.21;;;29.17;40.84
61805;BME280;47725;47.912;7.356;2022-07-29T21:44:46;99295.04;;;29.17;40.90
61805;BME280;47725;47.912;7.356;2022-07-29T21:48:46;99297.55;;;29.15;41.17